首页
METAR-TAF:

METAR-TAF

机场 :

贝拉库拉, 不列颠哥伦比亚, 加拿大

纬度: 52-23N, 经度: 126-35W, 海拔: 35米

当前天气观测

该预报发布于1小时和4分钟前的00:00 UTC
风速8节,风向西转西南,有时为15节阵风,在南转西南西之间变化
温度 9°C
湿度 71%
气压 1022 hPa
能見度: 24.1公里
多云层高于5400英尺
阴天层高于7400英尺

METAR: CYBD 080000Z 24008G15KT 200V270 15SM BKN054 OVC074 09/04 A3018 RMK SC5AC3 SLP224

时间: 18:04 (01:04 UTC)


TAF: 丢失

超过4000个机场的气象观测和天气预报(METAR&TAF报告)。

可查询的气象台以黄色和红色小点在地图上表示。

将鼠标移到小点上方,可查看气象台名称。

然后点击查看天气观测和预报。

如需切换地图:点击带黑十字的绿色按钮放大地图;点击带横线的绿色按钮缩小地图;或者点击绿色箭头查看邻近地区的地图。


METAR-TAF: